Time;durP1;ratioP1;P1;durP2;ratioP2;P2;SDS_P1;SDS_P2;PMS_P1;PMS_P2;Temp;Humidity;BMP_temperature;BMP_pressure;BME280_temperature;BME280_humidity;BME280_pressure;Samples;Min_cycle;Max_cycle;Signal;HPM_P1;HPM_P2
2024/04/21 00:02:22;;;;;;;18.70;6.32;;;;;;;16.16;100.00;100967.59;11351139;26;20002;-93
2024/04/21 00:07:46;;;;;;;19.48;5.78;;;;;;;16.02;100.00;100965.00;11379126;26;20444;-93
2024/04/21 00:13:10;;;;;;;15.10;5.47;;;;;;;16.01;100.00;100943.72;11302446;26;20002;-93
2024/04/21 00:18:37;;;;;;;17.15;5.13;;;;;;;16.02;100.00;100948.13;11315085;26;19998;-94
2024/04/21 00:24:03;;;;;;;13.55;5.50;;;;;;;15.98;100.00;100957.03;11380414;26;20020;-96
2024/04/21 00:29:27;;;;;;;21.65;5.40;;;;;;;15.95;100.00;100950.81;11328501;26;20006;-95
2024/04/21 00:34:55;;;;;;;15.57;5.55;;;;;;;15.94;100.00;100938.41;11301420;26;20070;-94
2024/04/21 00:40:19;;;;;;;16.63;5.22;;;;;;;15.91;100.00;100926.88;11351195;26;19998;-94
2024/04/21 00:45:47;;;;;;;19.70;6.45;;;;;;;15.79;100.00;100932.25;11328218;26;19998;-94
2024/04/21 00:51:14;;;;;;;15.50;5.40;;;;;;;15.78;100.00;100935.78;11269887;26;20051;-93
2024/04/21 00:56:39;;;;;;;18.15;5.30;;;;;;;15.63;100.00;100936.72;11300835;26;20014;-95
2024/04/21 01:02:03;;;;;;;15.57;5.57;;;;;;;15.62;100.00;100928.75;11297405;26;19998;-94
2024/04/21 01:07:30;;;;;;;16.27;5.35;;;;;;;15.64;100.00;100933.16;11271626;26;20002;-94
2024/04/21 01:12:55;;;;;;;18.08;6.05;;;;;;;15.61;100.00;100937.63;11301652;26;20078;-93
2024/04/21 01:18:19;;;;;;;18.02;5.72;;;;;;;15.61;100.00;100934.97;11318580;26;20070;-95
2024/04/21 01:23:47;;;;;;;14.82;5.75;;;;;;;15.59;100.00;100934.94;11306021;26;20010;-95
2024/04/21 01:29:11;;;;;;;18.83;5.63;;;;;;;15.56;100.00;100934.94;11372538;26;20043;-95
2024/04/21 01:34:35;;;;;;;17.80;5.70;;;;;;;15.48;100.00;100934.06;11330362;26;20002;-95
2024/04/21 01:40:03;;;;;;;19.77;6.18;;;;;;;15.42;100.00;100936.75;11341474;26;19998;-96
2024/04/21 01:45:27;;;;;;;19.40;5.93;;;;;;;15.35;100.00;100940.28;11353823;26;20009;-96
2024/04/21 01:50:52;;;;;;;17.02;5.88;;;;;;;15.36;100.00;100942.91;11368361;26;19994;-77
2024/04/21 01:56:19;;;;;;;16.15;5.43;;;;;;;15.37;100.00;100949.13;11188182;21;20008;-96
2024/04/21 02:01:47;;;;;;;19.07;6.10;;;;;;;15.25;100.00;100950.03;11183641;26;19992;-96
2024/04/21 02:07:11;;;;;;;17.80;6.00;;;;;;;15.25;100.00;100966.00;11164044;26;20011;-96
2024/04/21 02:12:41;;;;;;;18.25;5.70;;;;;;;15.10;100.00;100964.22;11184762;26;20050;-96
2024/04/21 02:18:05;;;;;;;16.30;5.72;;;;;;;15.10;100.00;100966.88;11175366;26;19995;-94
2024/04/21 02:23:29;;;;;;;15.32;6.15;;;;;;;15.07;100.00;100966.88;11167413;26;19992;-96
2024/04/21 02:28:57;;;;;;;18.63;5.90;;;;;;;14.88;100.00;100962.44;11177150;26;20437;-94
2024/04/21 02:34:21;;;;;;;13.38;5.68;;;;;;;14.87;100.00;100970.41;11190259;26;20059;-95
2024/04/21 02:39:48;;;;;;;20.63;5.97;;;;;;;14.79;100.00;100974.81;11180786;26;20042;-87
2024/04/21 02:45:15;;;;;;;16.15;5.85;;;;;;;14.81;100.00;100984.56;11220470;26;20003;-71
2024/04/21 02:50:40;;;;;;;17.58;5.53;;;;;;;14.84;100.00;100981.03;11235490;26;19984;-71
2024/04/21 02:56:04;;;;;;;18.60;6.95;;;;;;;14.89;100.00;100982.81;11258488;26;20003;-96
2024/04/21 03:01:31;;;;;;;15.45;5.18;;;;;;;14.74;100.00;100982.78;11192158;26;20014;-95
2024/04/21 03:06:55;;;;;;;18.38;5.80;;;;;;;14.75;100.00;100982.81;11220307;26;20067;-95
2024/04/21 03:12:21;;;;;;;20.48;6.32;;;;;;;14.81;100.00;100979.25;11168809;26;20008;-84
2024/04/21 03:17:49;;;;;;;17.15;5.40;;;;;;;14.75;100.00;100972.16;11188602;26;20003;-96
2024/04/21 03:23:13;;;;;;;14.40;5.68;;;;;;;14.75;100.00;100979.25;11229900;26;20003;-74
2024/04/21 03:28:37;;;;;;;15.30;5.90;;;;;;;14.50;100.00;100977.41;11240475;26;20000;-96
2024/04/21 03:34:04;;;;;;;23.00;6.07;;;;;;;14.39;100.00;100985.34;11238547;26;20004;-84
2024/04/21 03:39:28;;;;;;;15.45;5.63;;;;;;;14.39;100.00;100995.97;11190626;26;20008;-78
2024/04/21 03:44:54;;;;;;;16.75;5.90;;;;;;;14.46;100.00;101007.50;12581489;21;20011;-84
2024/04/21 03:50:22;;;;;;;18.70;6.10;;;;;;;14.46;100.00;101010.16;11361470;25;20002;-96
2024/04/21 03:55:47;;;;;;;17.00;5.80;;;;;;;14.62;100.00;101012.00;11358867;25;20398;-95
2024/04/21 04:01:11;;;;;;;19.40;5.55;;;;;;;14.63;100.00;101012.00;11287836;26;20212;-72
2024/04/21 04:06:38;;;;;;;12.50;4.85;;;;;;;14.66;100.00;101009.34;11288814;26;19995;-71
2024/04/21 04:17:20;;;;;;;12.07;3.65;;;;;;;15.43;100.00;101005.00;11248564;21;20011;-96
2024/04/21 04:22:46;;;;;;;9.90;4.20;;;;;;;15.94;100.00;101014.75;11170846;26;20024;-96
2024/04/21 04:28:13;;;;;;;9.73;3.50;;;;;;;16.45;100.00;101024.34;11186472;26;20004;-96
2024/04/21 04:33:40;;;;;;;8.60;3.53;;;;;;;16.85;100.00;101021.50;11127059;26;19996;-96
2024/04/21 04:39:09;;;;;;;12.50;3.55;;;;;;;17.31;100.00;101014.97;11183452;26;20004;-95
2024/04/21 04:44:34;;;;;;;6.90;3.30;;;;;;;17.70;100.00;101016.44;11142196;26;20000;-96
2024/04/21 04:50:00;;;;;;;11.57;3.38;;;;;;;17.96;100.00;101023.28;11142874;26;20073;-96
2024/04/21 04:55:26;;;;;;;7.60;3.20;;;;;;;18.22;100.00;101032.78;11134055;26;20444;-93
2024/04/21 05:00:51;;;;;;;6.55;2.78;;;;;;;18.60;100.00;101026.13;11098516;26;20004;-96
2024/04/21 05:06:15;;;;;;;11.38;2.80;;;;;;;18.93;100.00;101036.38;11085778;26;20008;-93
2024/04/21 05:11:48;;;;;;;8.93;2.45;;;;;;;19.52;100.00;101023.88;11091994;26;20150;-93
2024/04/21 05:17:13;;;;;;;10.10;2.97;;;;;;;20.01;100.00;101014.97;11105891;26;20004;-94
2024/04/21 05:22:38;;;;;;;8.35;2.65;;;;;;;20.49;100.00;101021.16;11123920;26;20004;-95
2024/04/21 05:28:08;;;;;;;11.10;3.17;;;;;;;21.06;100.00;101014.53;11115442;26;20008;-94
2024/04/21 05:33:32;;;;;;;12.10;3.10;;;;;;;21.51;100.00;101029.59;11103491;26;20000;-93
2024/04/21 05:38:57;;;;;;;9.52;2.50;;;;;;;21.76;100.00;101039.66;11125350;26;20015;-94
2024/04/21 05:44:26;;;;;;;10.50;2.55;;;;;;;21.77;100.00;101037.88;11120969;26;20019;-94
2024/04/21 05:49:50;;;;;;;8.73;3.03;;;;;;;21.87;100.00;101042.06;11127488;26;20022;-94
2024/04/21 05:55:15;;;;;;;8.13;2.40;;;;;;;21.77;99.91;101056.69;11132047;26;19996;-93
2024/04/21 06:00:42;;;;;;;9.88;2.80;;;;;;;22.09;96.18;101056.75;11130408;26;20011;-92
2024/04/21 06:06:06;;;;;;;9.10;2.57;;;;;;;22.60;93.03;101059.78;11130456;26;20449;-93
2024/04/21 06:11:30;;;;;;;8.20;2.67;;;;;;;23.23;86.87;101068.69;11134745;26;20168;-94
2024/04/21 06:16:57;;;;;;;8.43;2.60;;;;;;;23.62;77.87;101062.03;11162017;26;20014;-93
2024/04/21 06:22:21;;;;;;;7.70;1.87;;;;;;;23.87;72.35;101067.47;11140365;26;20003;-93
2024/04/21 06:27:45;;;;;;;6.65;2.10;;;;;;;24.06;65.41;101056.91;11118983;26;20566;-93
2024/04/21 06:33:12;;;;;;;9.95;2.50;;;;;;;23.93;61.04;101052.88;11124312;26;20425;-92
2024/04/21 06:38:36;;;;;;;8.03;1.90;;;;;;;24.07;59.40;101054.16;11100904;26;20004;-93
2024/04/21 06:44:00;;;;;;;10.63;1.92;;;;;;;24.28;53.73;101047.16;11102314;26;20019;-95
2024/04/21 06:49:28;;;;;;;7.63;2.15;;;;;;;24.07;48.72;101054.16;11127274;26;20000;-94
2024/04/21 06:54:52;;;;;;;6.47;1.70;;;;;;;24.38;48.13;101051.28;11087421;26;20012;-93
2024/04/21 07:00:17;;;;;;;4.07;1.40;;;;;;;24.51;47.39;101040.91;11133981;26;20036;-92
2024/04/21 07:05:44;;;;;;;5.80;1.83;;;;;;;24.62;44.58;101047.66;11106523;26;20000;-90
2024/04/21 07:11:08;;;;;;;6.30;1.80;;;;;;;24.64;44.04;101053.00;11133492;26;20004;-95
2024/04/21 07:16:32;;;;;;;7.30;1.60;;;;;;;24.73;42.16;101054.47;11133230;26;20018;-94
2024/04/21 07:21:58;;;;;;;8.52;2.50;;;;;;;25.03;42.90;101050.59;11126287;26;20000;-92
2024/04/21 07:27:22;;;;;;;6.70;2.00;;;;;;;25.35;42.62;101052.91;11147210;26;20012;-92
2024/04/21 07:32:47;;;;;;;7.43;1.90;;;;;;;25.21;41.20;101059.78;11130466;26;20012;-88
2024/04/21 07:38:14;;;;;;;8.27;2.05;;;;;;;24.96;40.74;101049.97;11130915;26;20015;-89
2024/04/21 07:43:38;;;;;;;9.53;1.90;;;;;;;24.97;40.81;101040.03;11132146;26;20012;-89
2024/04/21 07:49:03;;;;;;;5.43;1.80;;;;;;;25.39;40.22;101046.44;11129854;26;20238;-89
2024/04/21 07:54:29;;;;;;;3.58;1.30;;;;;;;25.29;39.17;101045.03;11108796;26;20011;-93
2024/04/21 07:59:53;;;;;;;3.60;1.35;;;;;;;25.25;39.32;101050.66;11131231;26;20018;-89
2024/04/21 08:05:18;;;;;;;4.88;1.50;;;;;;;25.66;38.86;101055.28;11129923;26;20004;-87
2024/04/21 08:10:44;;;;;;;5.07;1.60;;;;;;;25.55;37.57;101062.00;11131917;26;20000;-87
2024/04/21 08:16:09;;;;;;;6.80;1.70;;;;;;;25.63;37.02;101057.19;11131314;26;20001;-88
2024/04/21 08:21:33;;;;;;;3.15;1.27;;;;;;;26.03;36.94;101062.69;11035332;26;20015;-86
2024/04/21 08:26:59;;;;;;;3.53;1.42;;;;;;;25.89;34.97;101056.09;11058960;26;20052;-87
2024/04/21 08:32:24;;;;;;;5.53;1.67;;;;;;;25.44;36.02;101067.00;11051246;26;20395;-88
2024/04/21 08:37:48;;;;;;;3.88;1.17;;;;;;;25.53;35.02;101064.81;11106308;26;20271;-89
2024/04/21 08:43:19;;;;;;;4.35;1.20;;;;;;;25.45;34.53;101055.25;11130930;26;20014;-89
2024/04/21 08:48:45;;;;;;;3.17;1.13;;;;;;;25.60;34.38;101062.75;11130113;26;20038;-88
2024/04/21 08:54:09;;;;;;;1.85;1.00;;;;;;;25.43;35.29;101074.22;11130338;26;20015;-88
2024/04/21 08:59:40;;;;;;;2.45;1.30;;;;;;;25.35;36.88;101062.81;11129148;26;20004;-89
2024/04/21 09:05:04;;;;;;;3.55;1.45;;;;;;;25.40;36.74;101068.97;11129933;26;20518;-88
2024/04/21 09:10:29;;;;;;;1.88;1.08;;;;;;;25.33;37.13;101071.03;11129838;26;20000;-86
2024/04/21 09:15:56;;;;;;;5.50;1.13;;;;;;;25.52;36.06;101056.75;11104861;26;20315;-89
2024/04/21 09:21:22;;;;;;;3.47;1.08;;;;;;;25.32;37.32;101066.56;11128974;26;20088;-86
2024/04/21 09:26:47;;;;;;;5.25;1.85;;;;;;;25.21;38.06;101079.59;11128535;26;20014;-87
2024/04/21 09:32:16;;;;;;;2.03;1.00;;;;;;;25.18;37.87;101074.34;11129561;26;20770;-88
2024/04/21 09:37:45;;;;;;;3.50;1.25;;;;;;;25.33;37.70;101083.66;11127261;26;20000;-86
2024/04/21 09:43:11;;;;;;;3.83;1.13;;;;;;;25.50;38.20;101064.91;11061860;26;20008;-84
2024/04/21 09:48:40;;;;;;;4.60;1.40;;;;;;;25.37;39.26;101069.94;11057060;26;20027;-85
2024/04/21 09:54:06;;;;;;;1.98;1.10;;;;;;;25.25;39.41;101054.22;11050132;26;20506;-80
2024/04/21 09:59:33;;;;;;;3.75;1.13;;;;;;;25.06;40.05;101050.50;11073722;26;20026;-84
2024/04/21 10:05:03;;;;;;;2.70;1.47;;;;;;;25.15;38.22;101043.81;11063301;26;20036;-88
2024/04/21 10:10:28;;;;;;;5.85;1.20;;;;;;;24.85;39.05;101040.50;11087385;26;20459;-88
2024/04/21 10:15:53;;;;;;;3.88;1.15;;;;;;;24.97;39.80;101024.72;11099445;26;20445;-96
2024/04/21 10:21:20;;;;;;;4.07;1.98;;;;;;;25.34;38.24;101034.91;11092671;26;20000;-84
2024/04/21 10:26:44;;;;;;;4.85;1.33;;;;;;;25.48;38.53;101025.34;11099305;26;20032;-83
2024/04/21 10:32:16;;;;;;;2.47;1.10;;;;;;;25.06;38.88;101020.78;11091235;26;20004;-83
2024/04/21 10:37:43;;;;;;;2.20;1.20;;;;;;;25.06;38.72;100992.88;11094033;26;20004;-85
2024/04/21 10:43:08;;;;;;;5.23;1.13;;;;;;;24.94;38.26;101010.47;11124235;26;20512;-82
2024/04/21 10:48:32;;;;;;;5.43;1.55;;;;;;;24.81;38.59;100999.19;11098989;26;20410;-84
2024/04/21 10:53:58;;;;;;;2.70;0.98;;;;;;;24.61;38.63;100997.28;11092420;26;19996;-84
2024/04/21 10:59:22;;;;;;;3.43;0.97;;;;;;;24.70;38.70;101006.84;11104548;26;20013;-87
2024/04/21 11:04:46;;;;;;;4.32;1.58;;;;;;;24.90;38.65;100995.31;11073442;26;20019;-88
2024/04/21 11:10:14;;;;;;;2.50;1.40;;;;;;;24.98;39.39;101007.56;11073297;26;20368;-88
2024/04/21 11:15:43;;;;;;;4.85;1.25;;;;;;;25.05;39.45;101004.63;11097552;26;20016;-87
2024/04/21 11:21:07;;;;;;;2.92;1.20;;;;;;;24.79;39.37;100994.81;11124613;26;20005;-91
2024/04/21 11:26:35;;;;;;;2.90;1.10;;;;;;;24.40;41.08;100979.22;11106283;26;20070;-92
2024/04/21 11:32:01;;;;;;;2.55;1.35;;;;;;;24.60;41.16;100995.53;11091320;26;20020;-86
2024/04/21 11:37:25;;;;;;;3.15;1.42;;;;;;;24.48;41.71;100987.88;11044083;26;20004;-84
2024/04/21 11:42:52;;;;;;;2.72;1.30;;;;;;;24.35;41.52;100981.19;11107580;26;20059;-89
2024/04/21 11:48:16;;;;;;;5.05;1.77;;;;;;;24.26;42.18;100983.38;11053888;26;20009;-85
2024/04/21 11:53:40;;;;;;;5.22;1.10;;;;;;;24.41;41.29;100964.81;11060460;26;20066;-84
2024/04/21 11:59:08;;;;;;;4.68;1.23;;;;;;;24.49;41.30;100978.84;11098156;26;20028;-91
2024/04/21 12:04:32;;;;;;;3.60;1.50;;;;;;;24.34;41.72;100974.06;11076807;26;20040;-89
2024/04/21 12:09:56;;;;;;;3.40;1.50;;;;;;;24.22;42.29;100977.19;11066389;26;20834;-86
2024/04/21 12:15:24;;;;;;;4.03;1.33;;;;;;;24.06;41.65;100970.59;11090426;26;20086;-85
2024/04/21 12:20:48;;;;;;;1.95;1.20;;;;;;;24.19;41.61;100974.63;11150390;26;20106;-84
2024/04/21 12:26:13;;;;;;;8.00;1.40;;;;;;;23.87;42.09;100970.38;11118182;26;20016;-85
2024/04/21 12:31:40;;;;;;;3.08;1.38;;;;;;;23.72;42.77;100979.88;11106108;26;20045;-86
2024/04/21 12:37:04;;;;;;;4.80;1.50;;;;;;;23.47;43.44;100986.16;11130080;26;20083;-85
2024/04/21 12:42:28;;;;;;;2.25;1.38;;;;;;;23.41;43.83;100980.03;11122366;26;20580;-83
2024/04/21 12:47:55;;;;;;;2.85;1.58;;;;;;;23.32;44.72;100992.91;11118208;26;19996;-85
2024/04/21 12:53:20;;;;;;;3.37;1.67;;;;;;;23.14;45.38;100980.94;11127748;26;20077;-86
2024/04/21 12:58:44;;;;;;;4.88;1.90;;;;;;;23.01;46.28;100995.75;11070878;26;20036;-81
2024/04/21 13:04:12;;;;;;;3.00;1.88;;;;;;;23.05;47.12;101006.34;11056379;26;20005;-84
2024/04/21 13:09:36;;;;;;;3.88;2.28;;;;;;;23.13;47.91;101016.00;11096568;26;20341;-85
2024/04/21 13:15:00;;;;;;;4.45;1.60;;;;;;;23.10;47.35;101010.75;11128290;26;20014;-85
2024/04/21 13:20:27;;;;;;;3.05;2.45;;;;;;;23.10;47.21;101008.03;11112266;26;20432;-83
2024/04/21 13:25:51;;;;;;;2.80;1.60;;;;;;;22.87;48.95;100996.19;11092812;26;20086;-78
2024/04/21 13:31:15;;;;;;;6.82;2.25;;;;;;;22.60;51.59;101029.28;11094275;26;20084;-85
2024/04/21 13:36:42;;;;;;;5.07;2.05;;;;;;;22.78;51.57;101020.69;11083700;26;20013;-81
2024/04/21 13:42:06;;;;;;;6.35;1.92;;;;;;;22.59;53.10;101040.97;11090867;26;20530;-84
2024/04/21 13:47:30;;;;;;;4.72;1.85;;;;;;;22.66;54.34;101029.09;11081101;26;20004;-82
2024/04/21 13:52:57;;;;;;;5.35;2.00;;;;;;;22.30;54.86;101043.63;11081272;26;20196;-86
2024/04/21 13:58:21;;;;;;;3.95;1.80;;;;;;;22.09;59.29;101037.03;11095446;26;20539;-89
2024/04/21 14:03:45;;;;;;;4.80;2.15;;;;;;;21.74;63.33;101024.50;11084694;26;20022;-83
2024/04/21 14:09:12;;;;;;;7.80;3.17;;;;;;;21.59;67.55;101044.59;11055602;26;20077;-82
2024/04/21 14:14:38;;;;;;;3.75;2.10;;;;;;;21.29;72.65;101042.66;11085865;26;20004;-83
2024/04/21 14:20:02;;;;;;;7.47;2.42;;;;;;;21.19;75.58;101020.53;11121145;26;20012;-85
2024/04/21 14:25:29;;;;;;;4.63;2.33;;;;;;;21.13;78.93;101051.97;11108921;26;20006;-84
2024/04/21 14:30:53;;;;;;;4.80;2.30;;;;;;;20.92;83.17;101035.44;11075876;26;20015;-82
2024/04/21 14:36:17;;;;;;;3.67;2.40;;;;;;;20.77;85.31;101041.13;11122731;26;20077;-83
2024/04/21 14:41:44;;;;;;;4.65;2.60;;;;;;;20.78;87.61;101042.91;11123866;26;20051;-87
2024/04/21 14:47:09;;;;;;;6.77;2.43;;;;;;;20.68;89.49;101044.00;11123755;26;20406;-87
2024/04/21 14:52:38;;;;;;;10.55;3.22;;;;;;;20.67;91.46;101044.94;11051151;26;20517;-83
2024/04/21 14:58:06;;;;;;;6.65;2.63;;;;;;;20.50;94.61;101072.09;11099306;26;20036;-83
2024/04/21 15:03:29;;;;;;;5.95;2.95;;;;;;;20.41;97.48;101042.81;11084058;26;20016;-85
2024/04/21 15:08:59;;;;;;;4.30;2.45;;;;;;;20.43;98.72;101006.09;11122596;26;20020;-88
2024/04/21 15:14:26;;;;;;;5.35;2.30;;;;;;;20.36;99.53;100982.97;11099201;26;20000;-88
2024/04/21 15:19:50;;;;;;;7.20;2.80;;;;;;;20.27;99.78;100953.66;11158671;26;20007;-84
2024/04/21 15:25:14;;;;;;;4.68;2.38;;;;;;;20.20;98.83;100970.78;11106291;26;20001;-89
2024/04/21 15:30:40;;;;;;;11.25;3.55;;;;;;;20.22;97.96;101026.13;11130486;26;20015;-83
2024/04/21 15:36:05;;;;;;;5.30;2.40;;;;;;;20.07;99.69;100929.06;11098513;26;20403;-83
2024/04/21 15:41:29;;;;;;;4.60;2.78;;;;;;;20.01;100.00;100994.41;11129718;26;20763;-89
2024/04/21 15:46:56;;;;;;;5.00;2.90;;;;;;;20.15;100.00;100996.81;11124343;26;20376;-88
2024/04/21 15:52:20;;;;;;;5.80;2.60;;;;;;;20.15;100.00;101043.25;11107998;26;20035;-85
2024/04/21 15:57:45;;;;;;;7.28;2.92;;;;;;;20.02;100.00;100996.16;11098172;26;20036;-91
2024/04/21 16:03:11;;;;;;;5.50;2.53;;;;;;;19.93;100.00;101090.16;11070010;26;20466;-84
2024/04/21 16:08:35;;;;;;;6.70;2.88;;;;;;;19.81;100.00;101101.06;11067857;26;20364;-84
2024/04/21 16:13:59;;;;;;;5.63;2.88;;;;;;;19.85;100.00;101121.53;11074341;26;20716;-82
2024/04/21 16:19:26;;;;;;;5.65;2.70;;;;;;;19.84;100.00;101117.09;11092107;26;20019;-94
2024/04/21 16:24:50;;;;;;;4.65;3.00;;;;;;;19.72;100.00;101110.13;11065895;26;20004;-94
2024/04/21 16:30:14;;;;;;;3.78;3.10;;;;;;;19.52;100.00;101112.25;11088412;26;20020;-86
2024/04/21 16:35:42;;;;;;;4.10;3.20;;;;;;;19.55;100.00;101071.16;11069502;26;20009;-85
2024/04/21 16:41:06;;;;;;;5.83;3.10;;;;;;;19.56;100.00;101147.94;11095167;26;20012;-90
2024/04/21 16:46:35;;;;;;;6.57;3.28;;;;;;;19.52;100.00;101154.22;11105552;26;20020;-90
2024/04/21 16:52:02;;;;;;;;;;;;;;;19.46;100.00;101115.03;11123279;26;20014;-81
2024/04/21 16:57:30;;;;;;;5.03;2.90;;;;;;;19.33;100.00;101124.13;11041787;26;19932;-85
2024/04/21 17:02:55;;;;;;;7.28;3.00;;;;;;;19.31;100.00;101105.38;11105741;26;20001;-83
2024/04/21 17:08:32;;;;;;;7.75;2.75;;;;;;;19.29;100.00;101127.75;11066815;26;20019;-85
2024/04/21 17:13:56;;;;;;;4.00;2.65;;;;;;;19.23;100.00;101117.13;11089531;26;20012;-83
2024/04/21 17:19:23;;;;;;;7.75;3.35;;;;;;;19.23;100.00;101115.31;11103849;26;20012;-86
2024/04/21 17:24:50;;;;;;;5.60;3.05;;;;;;;19.26;100.00;101104.56;11071021;26;20001;-85
2024/04/21 17:30:14;;;;;;;7.15;3.47;;;;;;;19.24;100.00;101094.78;11104901;26;20331;-84
2024/04/21 17:35:38;;;;;;;6.43;3.08;;;;;;;19.22;100.00;101070.75;11074394;26;20005;-85
2024/04/21 17:41:07;;;;;;;4.30;2.92;;;;;;;19.27;100.00;101084.03;11065722;26;20043;-88
2024/04/21 17:46:31;;;;;;;6.63;3.05;;;;;;;19.25;100.00;101093.88;11081649;26;20075;-81
2024/04/21 17:51:56;;;;;;;5.53;2.85;;;;;;;19.24;100.00;101066.22;11077909;26;20077;-78
2024/04/21 17:57:23;;;;;;;5.75;2.80;;;;;;;19.21;100.00;101055.59;11068825;26;20011;-80
2024/04/21 18:02:47;;;;;;;9.27;3.20;;;;;;;19.15;100.00;101073.53;11080874;26;20048;-81
2024/04/21 18:08:11;;;;;;;8.52;3.17;;;;;;;19.06;100.00;101063.81;11107789;26;20014;-82
2024/04/21 18:13:39;;;;;;;5.95;3.15;;;;;;;19.04;100.00;101063.84;11057376;26;20047;-83
2024/04/21 18:19:03;;;;;;;5.30;2.80;;;;;;;19.00;100.00;101075.50;11116264;26;20051;-89
2024/04/21 18:24:27;;;;;;;4.50;2.53;;;;;;;18.94;100.00;101061.31;11070969;26;20012;-86
2024/04/21 18:29:56;;;;;;;5.50;2.50;;;;;;;18.98;100.00;101068.41;11081249;26;20000;-82
2024/04/21 18:35:20;;;;;;;5.53;2.80;;;;;;;18.96;100.00;101049.72;11103112;26;20004;-82
2024/04/21 18:40:44;;;;;;;4.55;2.30;;;;;;;18.93;100.00;101048.84;11130906;26;20005;-83
2024/04/21 18:46:11;;;;;;;8.05;2.67;;;;;;;18.90;100.00;101040.88;11130746;26;20012;-83
2024/04/21 18:51:37;;;;;;;12.15;3.42;;;;;;;18.81;100.00;101038.31;11130489;26;20004;-82
2024/04/21 18:57:01;;;;;;;6.53;3.05;;;;;;;18.76;100.00;101043.75;11059549;26;20045;-80
2024/04/21 19:02:28;;;;;;;6.75;3.22;;;;;;;18.71;100.00;101059.84;11063632;26;20504;-85
2024/04/21 19:07:53;;;;;;;4.50;3.15;;;;;;;18.64;100.00;101033.22;11067449;26;20326;-81
2024/04/21 19:13:18;;;;;;;5.38;3.10;;;;;;;18.57;100.00;101031.53;11099829;26;20020;-89
2024/04/21 19:18:50;;;;;;;5.53;3.00;;;;;;;18.57;100.00;101047.56;11082300;26;20009;-84
2024/04/21 19:24:15;;;;;;;5.38;3.22;;;;;;;18.52;100.00;101041.34;11113627;26;20040;-88
2024/04/21 19:29:39;;;;;;;4.38;2.88;;;;;;;18.52;100.00;101018.16;11096745;26;20081;-90
2024/04/21 19:35:09;;;;;;;3.92;2.45;;;;;;;18.50;100.00;101053.84;11046032;26;20052;-94
2024/04/21 19:40:33;;;;;;;7.18;3.30;;;;;;;18.50;100.00;101056.53;11085533;26;20005;-95
2024/04/21 19:46:05;;;;;;;6.57;2.45;;;;;;;18.49;100.00;101069.00;11073671;26;20013;-93
2024/04/21 19:51:36;;;;;;;7.13;2.55;;;;;;;18.49;100.00;101073.47;11084988;26;20078;-89
2024/04/21 19:57:04;;;;;;;3.80;2.83;;;;;;;18.47;100.00;101054.78;11099943;26;20041;-91
2024/04/21 20:02:31;;;;;;;7.60;2.97;;;;;;;18.48;100.00;101047.63;11130235;26;20433;-83
2024/04/21 20:07:58;;;;;;;4.07;2.63;;;;;;;18.46;100.00;101076.16;11141571;26;20392;-86
2024/04/21 20:13:22;;;;;;;8.32;3.20;;;;;;;18.46;100.00;101047.66;11097337;26;20008;-88
2024/04/21 20:18:50;;;;;;;6.07;2.40;;;;;;;18.43;100.00;101053.03;11099995;26;20040;-87
2024/04/21 20:24:35;;;;;;;3.20;2.20;;;;;;;18.44;100.00;101029.88;11125369;26;20018;-88
2024/04/21 20:29:59;;;;;;;5.32;2.65;;;;;;;18.43;100.00;101050.38;11140216;26;20007;-89
2024/04/21 20:35:24;;;;;;;4.97;2.05;;;;;;;18.42;100.00;101050.38;11148758;26;20015;-88
2024/04/21 20:40:53;;;;;;;2.90;2.00;;;;;;;18.42;100.00;101039.69;11145499;26;20019;-89
2024/04/21 20:46:20;;;;;;;;;;;;;;;18.45;100.00;101012.91;11140461;26;20004;-89
2024/04/21 20:51:45;;;;;;;4.32;2.00;;;;;;;18.38;100.00;101024.59;11095193;26;19925;-89
2024/04/21 20:57:14;;;;;;;3.78;2.30;;;;;;;18.38;100.00;101021.94;11117614;26;20012;-89
2024/04/21 21:02:40;;;;;;;4.20;2.35;;;;;;;18.36;100.00;101018.38;11151775;26;20054;-89
2024/04/21 21:08:05;;;;;;;5.03;2.05;;;;;;;18.34;100.00;101034.44;11136124;26;20012;-88
2024/04/21 21:13:32;;;;;;;2.72;1.85;;;;;;;18.36;100.00;101045.13;11082335;26;20036;-89
2024/04/21 21:18:56;;;;;;;4.68;2.33;;;;;;;18.42;100.00;101053.06;11102132;26;20000;-88
2024/04/21 21:24:20;;;;;;;4.63;1.92;;;;;;;18.48;100.00;101055.66;11105622;26;20001;-90
2024/04/21 21:29:47;;;;;;;4.55;2.00;;;;;;;18.51;100.00;101072.53;11104467;26;20000;-88
2024/04/21 21:35:11;;;;;;;5.37;2.00;;;;;;;18.58;100.00;101076.06;11105653;26;20803;-87
2024/04/21 21:40:36;;;;;;;4.30;2.03;;;;;;;18.64;100.00;101097.41;11129375;26;20011;-89
2024/04/21 21:46:02;;;;;;;3.75;2.58;;;;;;;18.65;100.00;101109.84;11105013;26;20050;-88
2024/04/21 21:51:26;;;;;;;5.45;2.15;;;;;;;18.68;100.00;101118.72;11125879;26;20040;-88
2024/04/21 21:56:52;;;;;;;3.05;1.90;;;;;;;18.70;100.00;101138.34;11105829;26;20003;-91
2024/04/21 22:02:19;;;;;;;4.07;2.00;;;;;;;18.61;100.00;101124.16;11105399;26;20004;-87
2024/04/21 22:07:43;;;;;;;7.57;2.10;;;;;;;18.57;100.00;101135.81;11127652;26;20433;-83
2024/04/21 22:13:07;;;;;;;5.07;2.10;;;;;;;18.52;100.00;101134.91;11127996;26;20033;-91
2024/04/21 22:18:34;;;;;;;5.45;2.40;;;;;;;18.40;100.00;101135.94;11133190;26;20081;-89
2024/04/21 22:23:58;;;;;;;7.60;2.65;;;;;;;18.34;100.00;101146.69;11170602;26;20003;-88
2024/04/21 22:29:22;;;;;;;5.07;2.00;;;;;;;18.29;100.00;101132.50;11128301;26;20008;-90
2024/04/21 22:34:52;;;;;;;5.55;2.00;;;;;;;18.31;100.00;101141.41;11100993;26;20008;-89
2024/04/21 22:40:17;;;;;;;5.68;2.50;;;;;;;18.28;100.00;101158.34;11124917;26;20012;-89
2024/04/21 22:45:41;;;;;;;5.78;2.80;;;;;;;18.30;100.00;101156.56;11101638;26;20016;-89
2024/04/21 22:51:08;;;;;;;7.05;2.92;;;;;;;18.24;100.00;101140.56;11066864;26;20000;-90
2024/04/21 22:56:32;;;;;;;5.73;2.10;;;;;;;18.24;100.00;101145.03;11086520;26;20433;-94
2024/04/21 23:01:57;;;;;;;15.25;3.25;;;;;;;18.17;100.00;101141.53;11090664;26;20012;-91
2024/04/21 23:07:24;;;;;;;6.20;1.98;;;;;;;18.11;100.00;101135.38;11125808;26;20008;-90
2024/04/21 23:12:48;;;;;;;5.72;2.38;;;;;;;18.05;100.00;101141.63;11124579;26;20031;-89
2024/04/21 23:18:12;;;;;;;8.30;2.17;;;;;;;17.99;100.00;101104.28;11097086;26;20011;-91
2024/04/21 23:23:39;;;;;;;8.35;2.67;;;;;;;17.89;100.00;101111.50;11101429;26;20001;-88
2024/04/21 23:29:03;;;;;;;3.60;2.40;;;;;;;17.88;100.00;101108.84;11099041;26;20004;-87
2024/04/21 23:34:28;;;;;;;4.85;2.30;;;;;;;17.87;100.00;101107.06;11129603;26;19996;-86
2024/04/21 23:39:54;;;;;;;6.22;2.58;;;;;;;17.84;100.00;101109.78;11100650;26;20005;-85
2024/04/21 23:45:19;;;;;;;5.40;2.60;;;;;;;17.86;100.00;101107.97;11127916;26;20004;-86
2024/04/21 23:50:43;;;;;;;6.13;2.60;;;;;;;17.83;100.00;101089.31;11131042;26;20014;-86
2024/04/21 23:56:10;;;;;;;5.63;2.20;;;;;;;17.79;100.00;101093.78;11120347;26;20023;-85
